Bville, New York
Current Conditions -  °F | °C
As of 2:54 PM on Thursday 29 Jan 2015 (Local Time) from KFZY Reporting Station
Overcast Overcast  
Wind Chill: 23°   Ceiling: 7500
Heat Index: 31°   Visibility: 10mi
Dew Point:   Wind: 9mph
Humidity: 37%   Direction: 120°ESE
Pressure: 29.86"   Gusts: 17mph
Location:  43.1825°N, 76.3664°W
Report Text: KFZY 291954Z AUTO 12008G15KT 10SM FEW055 OVC075 M01/M14 A2986 RMK AO2 SLP119 T10061139
Loading
Personal Weather Stations






























Interactive Weather Map New forecast layout! Learn more

10-Day Weather Forecast

Advertisements
Track Severe Weather on mobile